Time;durP1;ratioP1;P1;durP2;ratioP2;P2;SDS_P1;SDS_P2;PMS_P1;PMS_P2;Temp;Humidity;BMP_temperature;BMP_pressure;BME280_temperature;BME280_humidity;BME280_pressure;Samples;Min_cycle;Max_cycle;Signal;HPM_P1;HPM_P2
2023/07/17 00:01:17;;;;;;;6.35;3.58;;;;;;;;;;6297257;28;20055;-83
2023/07/17 00:04:20;;;;;;;8.02;3.20;;;;;;;;;;6298617;28;20131;-83
2023/07/17 00:07:22;;;;;;;;;;;;;;;;;;6298273;28;20058;-88
2023/07/17 00:10:23;;;;;;;4.22;3.10;;;;;;;;;;6297394;28;19923;-87
2023/07/17 00:13:28;;;;;;;8.70;3.78;;;;;;;;;;6289592;28;20117;-92
2023/07/17 00:16:29;;;;;;;11.20;3.33;;;;;;;;;;6285109;28;20332;-91
2023/07/17 00:19:39;;;;;;;9.73;3.17;;;;;;;;;;6295278;28;20048;-91
2023/07/17 00:22:41;;;;;;;14.25;3.53;;;;;;;;;;6299233;28;20213;-91
2023/07/17 00:25:43;;;;;;;7.22;3.13;;;;;;;;;;6298110;28;20340;-88
2023/07/17 00:28:44;;;;;;;8.93;3.78;;;;;;;;;;6297017;28;20126;-94
2023/07/17 00:31:46;;;;;;;5.30;3.25;;;;;;;;;;6297996;28;20049;-91
2023/07/17 00:34:49;;;;;;;7.50;3.70;;;;;;;;;;6297656;28;20060;-88
2023/07/17 00:37:50;;;;;;;;;;;;;;;;;;6299215;28;20054;-88
2023/07/17 00:40:52;;;;;;;13.73;3.90;;;;;;;;;;6296420;28;19916;-87
2023/07/17 00:43:53;;;;;;;17.00;3.55;;;;;;;;;;6296221;28;20236;-83
2023/07/17 00:46:55;;;;;;;11.02;3.10;;;;;;;;;;6294927;28;20044;-89
2023/07/17 00:49:58;;;;;;;9.32;3.38;;;;;;;;;;6299592;28;20053;-87
2023/07/17 00:53:00;;;;;;;12.05;3.97;;;;;;;;;;6300732;28;20063;-87
2023/07/17 00:56:01;;;;;;;7.95;3.05;;;;;;;;;;6300680;28;20052;-87
2023/07/17 00:59:04;;;;;;;7.68;3.67;;;;;;;;;;6304011;28;20045;-88
2023/07/17 01:02:08;;;;;;;11.40;3.40;;;;;;;;;;6301677;28;20044;-89
2023/07/17 01:05:14;;;;;;;7.07;3.03;;;;;;;;;;6296404;28;20061;-89
2023/07/17 01:08:16;;;;;;;10.05;3.15;;;;;;;;;;6296558;28;20060;-87
2023/07/17 01:11:20;;;;;;;13.27;3.75;;;;;;;;;;6298320;28;20380;-88
2023/07/17 01:14:22;;;;;;;7.22;3.22;;;;;;;;;;6299823;28;20053;-90
2023/07/17 01:17:26;;;;;;;10.10;3.97;;;;;;;;;;6300586;28;20044;-81
2023/07/17 01:20:29;;;;;;;9.27;3.10;;;;;;;;;;6294573;28;20061;-84
2023/07/17 01:23:31;;;;;;;;;;;;;;;;;;6300889;28;20057;-88
2023/07/17 01:26:34;;;;;;;9.10;3.40;;;;;;;;;;6297070;28;19927;-84
2023/07/17 01:29:35;;;;;;;;;;;;;;;;;;6300119;28;20056;-85
2023/07/17 01:32:36;;;;;;;10.25;3.55;;;;;;;;;;6296143;28;19946;-84
2023/07/17 01:35:38;;;;;;;7.57;3.63;;;;;;;;;;6299206;28;20052;-85
2023/07/17 01:38:39;;;;;;;10.55;3.45;;;;;;;;;;6297601;28;20059;-90
2023/07/17 01:41:42;;;;;;;12.93;3.55;;;;;;;;;;6299777;28;20276;-87
2023/07/17 01:44:44;;;;;;;6.60;3.08;;;;;;;;;;6295813;28;20418;-88
2023/07/17 01:47:45;;;;;;;7.70;3.40;;;;;;;;;;6297363;28;20044;-87
2023/07/17 01:50:47;;;;;;;8.30;3.45;;;;;;;;;;6298262;28;20336;-88
2023/07/17 01:53:49;;;;;;;8.18;3.38;;;;;;;;;;6293101;28;20046;-89
2023/07/17 01:56:52;;;;;;;6.95;3.50;;;;;;;;;;6295258;28;20233;-89
2023/07/17 01:59:54;;;;;;;9.90;3.95;;;;;;;;;;6290866;28;20064;-89
2023/07/17 02:02:55;;;;;;;7.55;3.25;;;;;;;;;;6297230;28;20275;-87
2023/07/17 02:05:57;;;;;;;9.65;4.10;;;;;;;;;;6301519;28;20044;-86
2023/07/17 02:08:58;;;;;;;7.90;3.38;;;;;;;;;;6302772;28;20051;-89
2023/07/17 02:12:01;;;;;;;6.25;3.03;;;;;;;;;;6299318;28;20044;-90
2023/07/17 02:15:03;;;;;;;7.45;3.22;;;;;;;;;;6302240;28;20051;-91
2023/07/17 02:18:04;;;;;;;9.90;3.38;;;;;;;;;;6303721;28;20107;-92
2023/07/17 02:21:06;;;;;;;7.13;3.33;;;;;;;;;;6297911;28;20060;-91
2023/07/17 02:24:07;;;;;;;11.48;3.92;;;;;;;;;;6301541;28;20056;-83
2023/07/17 02:27:10;;;;;;;8.20;3.60;;;;;;;;;;6304754;28;20048;-84
2023/07/17 02:30:12;;;;;;;7.88;3.67;;;;;;;;;;6304565;28;20111;-84
2023/07/17 02:33:14;;;;;;;8.63;3.58;;;;;;;;;;6301080;28;20051;-84
2023/07/17 02:36:15;;;;;;;10.25;3.78;;;;;;;;;;6302183;28;20060;-84
2023/07/17 02:39:17;;;;;;;7.85;3.35;;;;;;;;;;6298389;28;20289;-84
2023/07/17 02:42:20;;;;;;;8.43;3.88;;;;;;;;;;6302235;28;20060;-83
2023/07/17 02:45:21;;;;;;;10.70;3.63;;;;;;;;;;6300888;28;20048;-83
2023/07/17 02:48:23;;;;;;;9.40;4.35;;;;;;;;;;6299536;28;20737;-85
2023/07/17 02:51:25;;;;;;;9.80;3.78;;;;;;;;;;6298867;28;20331;-84
2023/07/17 02:54:26;;;;;;;9.23;3.80;;;;;;;;;;6301931;28;20063;-84
2023/07/17 02:57:29;;;;;;;6.70;3.63;;;;;;;;;;6299893;28;20059;-84
2023/07/17 03:00:31;;;;;;;13.10;4.07;;;;;;;;;;6299454;28;20363;-84
2023/07/17 03:03:32;;;;;;;8.55;3.50;;;;;;;;;;6298261;28;20060;-84
2023/07/17 03:06:34;;;;;;;8.65;4.03;;;;;;;;;;6297579;28;20049;-84
2023/07/17 03:09:35;;;;;;;10.43;4.20;;;;;;;;;;6299941;28;20048;-84
2023/07/17 03:12:38;;;;;;;9.25;4.05;;;;;;;;;;6299340;28;20103;-84
2023/07/17 03:15:40;;;;;;;7.80;3.72;;;;;;;;;;6297161;28;20098;-83
2023/07/17 03:18:41;;;;;;;10.88;3.88;;;;;;;;;;6300384;28;20405;-84
2023/07/17 03:21:43;;;;;;;9.60;4.05;;;;;;;;;;6302372;28;20248;-84
2023/07/17 03:24:45;;;;;;;8.75;3.78;;;;;;;;;;6299832;28;20336;-84
2023/07/17 03:27:48;;;;;;;9.50;4.20;;;;;;;;;;6301266;28;20048;-84
2023/07/17 03:30:51;;;;;;;;;;;;;;;;;;6301090;28;20315;-84
2023/07/17 03:33:52;;;;;;;13.77;5.07;;;;;;;;;;6302667;28;19966;-84
2023/07/17 03:36:54;;;;;;;10.90;4.70;;;;;;;;;;6299999;28;20094;-83
2023/07/17 03:39:56;;;;;;;9.07;4.47;;;;;;;;;;6299217;28;20040;-85
2023/07/17 03:42:59;;;;;;;12.60;4.07;;;;;;;;;;6299906;28;20040;-84
2023/07/17 03:46:00;;;;;;;9.45;4.50;;;;;;;;;;6298920;28;20308;-84
2023/07/17 03:49:02;;;;;;;9.45;4.68;;;;;;;;;;6299550;28;20055;-85
2023/07/17 03:52:06;;;;;;;9.55;4.15;;;;;;;;;;6300236;28;20344;-82
2023/07/17 03:55:10;;;;;;;11.68;4.47;;;;;;;;;;6299480;28;20079;-83
2023/07/17 03:58:13;;;;;;;8.57;4.25;;;;;;;;;;6300443;28;20045;-85
2023/07/17 04:01:15;;;;;;;11.35;4.80;;;;;;;;;;6296339;28;20101;-84
2023/07/17 04:04:17;;;;;;;11.70;4.70;;;;;;;;;;6299179;28;20048;-85
2023/07/17 04:07:18;;;;;;;11.05;4.88;;;;;;;;;;6298265;28;20256;-84
2023/07/17 04:10:20;;;;;;;15.25;5.40;;;;;;;;;;6299829;28;20048;-84
2023/07/17 04:13:23;;;;;;;11.77;5.32;;;;;;;;;;6298846;28;20383;-84
2023/07/17 04:16:26;;;;;;;8.52;4.72;;;;;;;;;;6297746;28;20076;-84
2023/07/17 04:19:28;;;;;;;13.90;4.75;;;;;;;;;;6298672;28;20057;-84
2023/07/17 04:22:29;;;;;;;13.52;4.85;;;;;;;;;;6301191;28;20240;-84
2023/07/17 04:25:31;;;;;;;13.77;4.90;;;;;;;;;;6306589;28;20048;-84
2023/07/17 04:28:36;;;;;;;10.43;4.70;;;;;;;;;;6308998;28;20108;-84
2023/07/17 04:31:37;;;;;;;8.85;4.50;;;;;;;;;;6304870;28;20048;-84
2023/07/17 04:34:39;;;;;;;14.00;4.80;;;;;;;;;;6303452;28;20115;-84
2023/07/17 04:37:41;;;;;;;9.10;4.35;;;;;;;;;;6304495;28;20060;-84
2023/07/17 04:40:42;;;;;;;21.40;5.30;;;;;;;;;;6302570;28;20236;-84
2023/07/17 04:43:45;;;;;;;14.82;5.97;;;;;;;;;;6303845;28;20071;-85
2023/07/17 04:46:47;;;;;;;12.15;4.47;;;;;;;;;;6303013;28;20072;-84
2023/07/17 04:49:49;;;;;;;14.68;5.28;;;;;;;;;;6303202;28;20271;-85
2023/07/17 04:52:50;;;;;;;11.38;4.65;;;;;;;;;;6301845;28;20068;-85
2023/07/17 04:55:53;;;;;;;10.32;4.63;;;;;;;;;;6303153;28;20052;-85
2023/07/17 04:58:56;;;;;;;10.05;4.60;;;;;;;;;;6302725;28;20044;-84
2023/07/17 05:01:57;;;;;;;9.20;4.57;;;;;;;;;;6302235;28;20056;-82
2023/07/17 05:04:59;;;;;;;17.80;5.22;;;;;;;;;;6303515;28;20103;-85
2023/07/17 05:08:00;;;;;;;14.05;4.65;;;;;;;;;;6303814;28;20053;-81
2023/07/17 05:11:04;;;;;;;9.23;5.60;;;;;;;;;;6304602;28;20257;-85
2023/07/17 05:14:07;;;;;;;14.90;4.82;;;;;;;;;;6303157;28;20084;-84
2023/07/17 05:17:09;;;;;;;11.18;5.78;;;;;;;;;;6300102;28;20052;-84
2023/07/17 05:20:11;;;;;;;16.48;5.80;;;;;;;;;;6302703;28;20056;-85
2023/07/17 05:23:13;;;;;;;13.73;5.13;;;;;;;;;;6303550;28;20056;-85
2023/07/17 05:26:15;;;;;;;12.57;5.03;;;;;;;;;;6303776;28;20040;-84
2023/07/17 05:29:18;;;;;;;16.27;6.50;;;;;;;;;;6303466;28;20052;-85
2023/07/17 05:32:19;;;;;;;12.60;6.50;;;;;;;;;;6301867;28;20058;-84
2023/07/17 05:35:21;;;;;;;14.00;6.47;;;;;;;;;;6301077;28;20398;-85
2023/07/17 05:38:22;;;;;;;11.35;5.45;;;;;;;;;;6300997;28;20056;-82
2023/07/17 05:41:24;;;;;;;19.95;6.90;;;;;;;;;;6301923;28;20059;-84
2023/07/17 05:44:27;;;;;;;12.95;7.60;;;;;;;;;;6302076;28;20360;-84
2023/07/17 05:47:28;;;;;;;15.43;6.78;;;;;;;;;;6299122;28;20044;-85
2023/07/17 05:50:30;;;;;;;15.88;7.80;;;;;;;;;;6301936;28;20059;-84
2023/07/17 05:53:31;;;;;;;14.23;7.15;;;;;;;;;;6301592;28;20120;-82
2023/07/17 05:56:33;;;;;;;13.77;7.35;;;;;;;;;;6302981;28;20056;-85
2023/07/17 05:59:36;;;;;;;14.07;7.20;;;;;;;;;;6300022;28;20243;-86
2023/07/17 06:02:38;;;;;;;13.15;6.55;;;;;;;;;;6300019;28;20044;-84
2023/07/17 06:05:40;;;;;;;13.48;7.47;;;;;;;;;;6300515;28;20239;-84
2023/07/17 06:08:42;;;;;;;11.20;6.75;;;;;;;;;;6301021;28;20063;-85
2023/07/17 06:11:43;;;;;;;12.57;6.50;;;;;;;;;;6300524;28;20056;-85
2023/07/17 06:14:46;;;;;;;20.02;7.65;;;;;;;;;;6300209;28;20083;-86
2023/07/17 06:17:48;;;;;;;12.90;6.85;;;;;;;;;;6299766;28;20056;-85
2023/07/17 06:20:49;;;;;;;14.40;7.55;;;;;;;;;;6302376;28;20128;-84
2023/07/17 06:23:51;;;;;;;15.80;6.68;;;;;;;;;;6303399;28;20256;-84
2023/07/17 06:26:52;;;;;;;12.90;6.70;;;;;;;;;;6302657;28;20081;-85
2023/07/17 06:29:55;;;;;;;14.40;6.40;;;;;;;;;;6300145;28;20354;-85
2023/07/17 06:32:57;;;;;;;14.63;6.38;;;;;;;;;;6299409;28;20323;-85
2023/07/17 06:35:59;;;;;;;13.18;6.63;;;;;;;;;;6301067;28;20052;-84
2023/07/17 06:39:00;;;;;;;15.90;6.60;;;;;;;;;;6300713;28;20040;-85
2023/07/17 06:42:02;;;;;;;12.23;5.90;;;;;;;;;;6300885;28;20051;-85
2023/07/17 06:45:06;;;;;;;11.27;6.30;;;;;;;;;;6300343;28;20056;-85
2023/07/17 06:48:08;;;;;;;14.57;6.40;;;;;;;;;;6299561;28;20052;-85
2023/07/17 06:51:09;;;;;;;16.13;6.78;;;;;;;;;;6300141;28;20059;-85
2023/07/17 06:54:11;;;;;;;13.82;6.25;;;;;;;;;;6301284;28;20107;-85
2023/07/17 06:57:13;;;;;;;16.67;6.68;;;;;;;;;;6300244;28;20053;-85
2023/07/17 07:00:16;;;;;;;13.88;5.72;;;;;;;;;;6300453;28;20060;-84
2023/07/17 07:03:17;;;;;;;13.10;6.47;;;;;;;;;;6298719;28;20171;-85
2023/07/17 07:06:19;;;;;;;14.50;7.00;;;;;;;;;;6300598;28;20058;-85
2023/07/17 07:09:20;;;;;;;14.30;6.07;;;;;;;;;;6299593;28;20051;-85
2023/07/17 07:12:22;;;;;;;12.98;6.35;;;;;;;;;;6300190;28;20048;-86
2023/07/17 07:15:25;;;;;;;17.60;6.30;;;;;;;;;;6298273;28;20338;-85
2023/07/17 07:18:27;;;;;;;14.60;6.63;;;;;;;;;;6299782;28;20074;-84
2023/07/17 07:21:28;;;;;;;13.20;6.28;;;;;;;;;;6300597;28;20244;-85
2023/07/17 07:24:30;;;;;;;10.55;5.90;;;;;;;;;;6301193;28;20056;-85
2023/07/17 07:27:32;;;;;;;14.35;5.65;;;;;;;;;;6300267;28;20048;-85
2023/07/17 07:30:35;;;;;;;12.88;6.35;;;;;;;;;;6296759;28;20340;-85
2023/07/17 07:33:37;;;;;;;15.45;6.70;;;;;;;;;;6298603;28;20059;-87
2023/07/17 07:36:38;;;;;;;11.77;6.38;;;;;;;;;;6300107;28;20052;-86
2023/07/17 07:39:39;;;;;;;10.93;6.63;;;;;;;;;;6299527;28;20095;-85
2023/07/17 07:42:41;;;;;;;12.93;5.70;;;;;;;;;;6298305;28;20088;-85
2023/07/17 07:45:44;;;;;;;11.82;5.88;;;;;;;;;;6297826;28;20052;-84
2023/07/17 07:48:46;;;;;;;16.73;5.90;;;;;;;;;;6300499;28;20140;-85
2023/07/17 07:51:47;;;;;;;12.52;6.60;;;;;;;;;;6298224;28;20071;-85
2023/07/17 07:54:49;;;;;;;14.38;6.78;;;;;;;;;;6299379;28;20052;-85
2023/07/17 07:57:50;;;;;;;16.65;5.97;;;;;;;;;;6300462;28;20052;-82
2023/07/17 08:00:53;;;;;;;12.68;6.00;;;;;;;;;;6302898;28;20056;-83
2023/07/17 08:03:55;;;;;;;15.00;6.68;;;;;;;;;;6304554;28;20056;-85
2023/07/17 08:06:56;;;;;;;16.27;6.07;;;;;;;;;;6305096;28;20051;-85
2023/07/17 08:09:58;;;;;;;16.77;6.15;;;;;;;;;;6305106;28;20157;-86
2023/07/17 08:12:59;;;;;;;14.98;6.82;;;;;;;;;;6303772;28;20112;-84
2023/07/17 08:16:02;;;;;;;12.27;6.22;;;;;;;;;;6304838;28;20052;-82
2023/07/17 08:19:04;;;;;;;;;;;;;;;;;;6302423;28;20044;-85
2023/07/17 08:22:05;;;;;;;13.63;6.15;;;;;;;;;;6305438;28;19951;-84
2023/07/17 08:25:07;;;;;;;12.25;6.07;;;;;;;;;;6304353;28;20048;-84
2023/07/17 08:28:09;;;;;;;13.27;5.82;;;;;;;;;;6305273;28;20048;-86
2023/07/17 08:31:12;;;;;;;12.15;6.20;;;;;;;;;;6304403;28;20044;-86
2023/07/17 08:34:15;;;;;;;11.85;5.30;;;;;;;;;;6303062;28;20060;-85
2023/07/17 08:37:16;;;;;;;13.13;6.22;;;;;;;;;;6305045;28;20052;-86
2023/07/17 08:40:18;;;;;;;14.77;5.85;;;;;;;;;;6304813;28;20060;-86
2023/07/17 08:43:20;;;;;;;11.15;5.60;;;;;;;;;;6302369;28;20040;-85
2023/07/17 08:46:23;;;;;;;13.18;5.63;;;;;;;;;;6304049;28;20062;-85
2023/07/17 08:49:26;;;;;;;9.15;5.15;;;;;;;;;;6305173;28;20067;-85
2023/07/17 08:52:28;;;;;;;14.13;5.00;;;;;;;;;;6302670;28;20063;-86
2023/07/17 08:55:31;;;;;;;9.70;4.97;;;;;;;;;;6300674;28;20037;-86
2023/07/17 08:58:32;;;;;;;10.35;4.45;;;;;;;;;;6303473;28;20470;-85
2023/07/17 09:01:36;;;;;;;13.00;5.10;;;;;;;;;;6303216;28;20052;-86
2023/07/17 09:04:37;;;;;;;10.68;4.80;;;;;;;;;;6302040;28;20372;-86
2023/07/17 09:07:39;;;;;;;11.25;5.60;;;;;;;;;;6301573;28;20080;-85
2023/07/17 09:10:40;;;;;;;10.75;4.85;;;;;;;;;;6301364;28;20052;-84
2023/07/17 09:13:42;;;;;;;11.10;5.65;;;;;;;;;;6301639;28;20052;-86
2023/07/17 09:16:46;;;;;;;11.35;5.57;;;;;;;;;;6302607;28;20061;-88
2023/07/17 09:19:48;;;;;;;8.15;4.75;;;;;;;;;;6302994;28;20059;-86
2023/07/17 09:22:50;;;;;;;10.32;5.72;;;;;;;;;;6303216;28;20052;-82
2023/07/17 09:25:54;;;;;;;17.10;4.53;;;;;;;;;;6302630;28;20105;-87
2023/07/17 09:28:56;;;;;;;9.23;5.38;;;;;;;;;;6302420;28;20059;-86
2023/07/17 09:32:13;;;;;;;10.35;5.20;;;;;;;;;;6302492;28;20065;-86
2023/07/17 09:35:18;;;;;;;13.85;5.53;;;;;;;;;;6300829;28;20071;-86
2023/07/17 09:38:22;;;;;;;11.38;5.10;;;;;;;;;;6303194;28;20052;-87
2023/07/17 09:41:24;;;;;;;12.88;4.80;;;;;;;;;;6302371;28;20047;-88
2023/07/17 09:44:26;;;;;;;16.27;5.50;;;;;;;;;;6302606;28;20056;-86
2023/07/17 09:47:30;;;;;;;14.77;5.50;;;;;;;;;;6300119;28;20041;-87
2023/07/17 09:50:31;;;;;;;12.02;5.20;;;;;;;;;;6302532;28;20860;-87
2023/07/17 09:53:33;;;;;;;10.45;4.63;;;;;;;;;;6301706;28;20372;-87
2023/07/17 09:56:35;;;;;;;11.90;5.40;;;;;;;;;;6302519;28;20052;-83
2023/07/17 09:59:39;;;;;;;13.82;5.45;;;;;;;;;;6301642;28;20154;-87
2023/07/17 10:02:47;;;;;;;10.70;4.57;;;;;;;;;;6301242;28;20057;-87
2023/07/17 10:05:50;;;;;;;10.98;4.93;;;;;;;;;;6302417;28;21496;-88
2023/07/17 10:08:51;;;;;;;9.15;5.00;;;;;;;;;;6301085;28;20061;-87
2023/07/17 10:11:53;;;;;;;10.73;4.80;;;;;;;;;;6302275;28;20044;-87
2023/07/17 10:14:55;;;;;;;11.10;5.20;;;;;;;;;;6302327;28;20052;-88
2023/07/17 10:17:58;;;;;;;18.92;5.15;;;;;;;;;;6301600;28;20273;-88
2023/07/17 10:21:04;;;;;;;11.45;4.88;;;;;;;;;;6299866;28;20048;-88
2023/07/17 10:24:05;;;;;;;10.88;5.03;;;;;;;;;;6301187;28;20084;-88
2023/07/17 10:27:07;;;;;;;12.77;5.20;;;;;;;;;;6300427;28;20045;-87
2023/07/17 10:30:26;;;;;;;13.57;5.13;;;;;;;;;;6301387;28;20882;-88
2023/07/17 10:33:36;;;;;;;9.95;5.13;;;;;;;;;;6299236;28;20048;-88
2023/07/17 10:36:39;;;;;;;10.30;5.03;;;;;;;;;;6300717;28;20315;-87
2023/07/17 10:39:43;;;;;;;12.75;5.25;;;;;;;;;;6301905;28;20060;-87
2023/07/17 10:42:44;;;;;;;9.70;4.80;;;;;;;;;;6299380;28;20113;-87
2023/07/17 10:46:04;;;;;;;8.98;4.88;;;;;;;;;;6300581;28;20334;-89
2023/07/17 10:49:08;;;;;;;13.15;5.32;;;;;;;;;;6298652;28;20056;-87
2023/07/17 10:52:09;;;;;;;12.55;5.30;;;;;;;;;;6300758;28;20056;-88
2023/07/17 10:55:11;;;;;;;10.13;5.55;;;;;;;;;;6301830;28;20063;-88
2023/07/17 10:58:13;;;;;;;10.25;5.10;;;;;;;;;;6300688;28;20363;-87
2023/07/17 11:01:15;;;;;;;11.20;5.30;;;;;;;;;;6300274;28;20048;-87
2023/07/17 11:04:19;;;;;;;15.95;5.65;;;;;;;;;;6301315;28;20063;-87
2023/07/17 11:07:21;;;;;;;9.18;5.00;;;;;;;;;;6300380;28;20067;-87
2023/07/17 11:10:23;;;;;;;;;;;;;;;;;;6299629;28;20094;-87
2023/07/17 11:13:30;;;;;;;9.20;5.38;;;;;;;;;;6298788;28;19923;-88
2023/07/17 11:16:33;;;;;;;10.93;5.03;;;;;;;;;;6298991;28;20075;-87
2023/07/17 11:19:36;;;;;;;11.63;5.38;;;;;;;;;;6301694;28;20320;-87
2023/07/17 11:22:40;;;;;;;12.75;5.30;;;;;;;;;;6298391;28;20367;-88
2023/07/17 11:25:42;;;;;;;11.07;5.80;;;;;;;;;;6300927;28;20237;-88
2023/07/17 11:28:44;;;;;;;10.43;5.45;;;;;;;;;;6300749;28;20112;-87
2023/07/17 11:31:45;;;;;;;12.70;5.25;;;;;;;;;;6299110;28;20351;-87
2023/07/17 11:34:52;;;;;;;10.35;4.95;;;;;;;;;;6296006;28;20401;-87
2023/07/17 11:37:55;;;;;;;10.73;5.05;;;;;;;;;;6301663;28;20063;-87
2023/07/17 11:40:57;;;;;;;10.95;5.05;;;;;;;;;;6299452;28;20052;-86
2023/07/17 11:43:59;;;;;;;11.07;5.63;;;;;;;;;;6298712;28;20291;-87
2023/07/17 11:47:03;;;;;;;11.85;5.53;;;;;;;;;;6300023;28;20071;-86
2023/07/17 11:50:07;;;;;;;9.57;4.82;;;;;;;;;;6301345;28;20082;-85
2023/07/17 11:53:11;;;;;;;11.68;5.32;;;;;;;;;;6297684;28;20059;-86
2023/07/17 11:56:16;;;;;;;7.85;4.53;;;;;;;;;;6299687;28;20051;-86
2023/07/17 11:59:21;;;;;;;12.20;5.43;;;;;;;;;;6298912;28;20079;-88
2023/07/17 12:02:22;;;;;;;10.07;5.20;;;;;;;;;;6300356;28;20054;-85
2023/07/17 12:05:23;;;;;;;;;;;;;;;;;;6299714;28;20316;-88
2023/07/17 12:08:26;;;;;;;14.38;5.05;;;;;;;;;;6300080;28;19927;-86
2023/07/17 12:11:28;;;;;;;9.63;4.68;;;;;;;;;;6298843;28;20095;-87
2023/07/17 12:14:30;;;;;;;10.07;5.05;;;;;;;;;;6300484;28;20138;-87
2023/07/17 12:17:31;;;;;;;;;;;;;;;;;;6298623;28;20747;-87
2023/07/17 12:20:33;;;;;;;9.70;5.28;;;;;;;;;;6300114;28;19916;-86
2023/07/17 12:23:36;;;;;;;9.02;5.00;;;;;;;;;;6299422;28;20113;-87
2023/07/17 12:26:37;;;;;;;10.00;4.85;;;;;;;;;;6299916;28;20048;-83
2023/07/17 12:29:39;;;;;;;10.60;4.90;;;;;;;;;;6300299;28;20187;-87
2023/07/17 12:32:41;;;;;;;10.00;4.78;;;;;;;;;;6298047;28;20119;-87
2023/07/17 12:35:43;;;;;;;6.35;4.38;;;;;;;;;;6299428;28;20106;-86
2023/07/17 12:38:46;;;;;;;10.20;5.15;;;;;;;;;;6299080;28;20159;-82
2023/07/17 12:41:47;;;;;;;9.93;5.20;;;;;;;;;;6298465;28;20138;-87
2023/07/17 12:44:49;;;;;;;9.68;5.18;;;;;;;;;;6296864;28;20064;-86
2023/07/17 12:47:50;;;;;;;10.20;4.97;;;;;;;;;;6300045;28;20793;-77
2023/07/17 12:50:52;;;;;;;7.60;4.88;;;;;;;;;;6302959;28;20052;-79
2023/07/17 12:53:55;;;;;;;11.50;5.30;;;;;;;;;;6305361;28;20056;-77
2023/07/17 12:56:56;;;;;;;12.55;5.20;;;;;;;;;;6303232;28;20052;-78
2023/07/17 12:59:58;;;;;;;10.93;5.35;;;;;;;;;;6303970;28;20060;-78
2023/07/17 13:02:59;;;;;;;9.68;4.78;;;;;;;;;;6303043;28;20054;-77
2023/07/17 13:06:01;;;;;;;;;;;;;;;;;;6304871;28;20064;-77
2023/07/17 13:09:04;;;;;;;12.50;5.95;;;;;;;;;;6302720;28;19924;-78
2023/07/17 13:12:06;;;;;;;12.70;5.03;;;;;;;;;;6301901;28;20056;-78
2023/07/17 13:15:08;;;;;;;8.07;5.22;;;;;;;;;;6301631;28;20056;-78
2023/07/17 13:18:10;;;;;;;14.52;5.43;;;;;;;;;;6301974;28;20060;-77
2023/07/17 13:21:11;;;;;;;;;;;;;;;;;;6300293;28;20356;-78
2023/07/17 13:24:16;;;;;;;6.13;4.43;;;;;;;;;;6305164;28;19955;-79
2023/07/17 13:27:18;;;;;;;10.77;5.30;;;;;;;;;;6301805;28;20052;-79
2023/07/17 13:30:19;;;;;;;8.43;4.72;;;;;;;;;;6301254;28;20055;-79
2023/07/17 13:33:21;;;;;;;10.40;5.32;;;;;;;;;;6301367;28;20060;-78
2023/07/17 13:36:22;;;;;;;8.73;4.93;;;;;;;;;;6302470;28;20056;-79
2023/07/17 13:39:25;;;;;;;10.77;5.60;;;;;;;;;;6300510;28;20063;-79
2023/07/17 13:42:27;;;;;;;14.55;5.45;;;;;;;;;;6301663;28;20044;-79
2023/07/17 13:45:28;;;;;;;9.98;5.13;;;;;;;;;;6303459;28;20055;-80
2023/07/17 13:48:29;;;;;;;11.98;5.45;;;;;;;;;;6302625;28;20058;-79
2023/07/17 13:51:31;;;;;;;;;;;;;;;;;;6303394;28;20324;-79
2023/07/17 13:54:33;;;;;;;9.15;4.63;;;;;;;;;;6301865;28;19924;-79
2023/07/17 13:57:35;;;;;;;8.77;5.22;;;;;;;;;;6302476;28;20041;-79
2023/07/17 14:00:36;;;;;;;;;;;;;;;;;;6302211;28;20094;-79
2023/07/17 14:03:38;;;;;;;9.65;4.72;;;;;;;;;;6301485;28;20136;-79
2023/07/17 14:06:39;;;;;;;10.70;4.80;;;;;;;;;;6301188;28;20053;-78
2023/07/17 14:09:42;;;;;;;8.43;5.03;;;;;;;;;;6301706;28;20255;-79
2023/07/17 14:12:44;;;;;;;8.75;4.20;;;;;;;;;;6301551;28;20048;-80
2023/07/17 14:15:45;;;;;;;7.15;4.30;;;;;;;;;;6300008;28;20145;-79
2023/07/17 14:18:47;;;;;;;10.40;4.80;;;;;;;;;;6300705;28;20056;-80
2023/07/17 14:21:48;;;;;;;9.00;4.97;;;;;;;;;;6302304;28;20102;-80
2023/07/17 14:24:51;;;;;;;8.07;4.45;;;;;;;;;;6301192;28;20294;-79
2023/07/17 14:27:53;;;;;;;6.82;4.00;;;;;;;;;;6302627;28;20210;-79
2023/07/17 14:30:55;;;;;;;8.82;4.18;;;;;;;;;;6301663;28;20060;-79
2023/07/17 14:33:56;;;;;;;7.28;4.07;;;;;;;;;;6302427;28;20052;-80
2023/07/17 14:36:58;;;;;;;6.22;4.10;;;;;;;;;;6300761;28;20060;-79
2023/07/17 14:40:03;;;;;;;7.15;4.38;;;;;;;;;;6300365;28;20048;-79
2023/07/17 14:43:05;;;;;;;10.13;4.28;;;;;;;;;;6298462;28;20115;-79
2023/07/17 14:46:07;;;;;;;6.22;4.25;;;;;;;;;;6301838;28;20071;-79
2023/07/17 14:49:08;;;;;;;9.18;4.15;;;;;;;;;;6300577;28;20282;-80
2023/07/17 14:52:10;;;;;;;7.95;4.22;;;;;;;;;;6299774;28;20058;-79
2023/07/17 14:55:13;;;;;;;11.27;4.20;;;;;;;;;;6301299;28;20259;-79
2023/07/17 14:58:14;;;;;;;7.30;4.38;;;;;;;;;;6301503;28;20087;-80
2023/07/17 15:01:15;;;;;;;;;;;;;;;;;;6300143;28;20052;-80
2023/07/17 15:04:17;;;;;;;7.38;4.22;;;;;;;;;;6299613;28;19925;-80
2023/07/17 15:07:18;;;;;;;6.82;3.63;;;;;;;;;;6299390;28;20053;-80
2023/07/17 15:10:21;;;;;;;9.40;4.43;;;;;;;;;;6300679;28;20230;-80
2023/07/17 15:13:22;;;;;;;6.95;4.20;;;;;;;;;;6299325;28;20053;-81
2023/07/17 15:16:24;;;;;;;6.63;4.28;;;;;;;;;;6300693;28;20059;-80
2023/07/17 15:19:25;;;;;;;6.05;3.90;;;;;;;;;;6299600;28;20333;-79
2023/07/17 15:22:27;;;;;;;8.05;4.50;;;;;;;;;;6301717;28;20056;-80
2023/07/17 15:25:30;;;;;;;9.10;4.55;;;;;;;;;;6299897;28;20328;-80
2023/07/17 15:28:31;;;;;;;9.70;4.30;;;;;;;;;;6299022;28;20048;-81
2023/07/17 15:31:33;;;;;;;7.60;4.25;;;;;;;;;;6298092;28;20267;-80
2023/07/17 15:34:34;;;;;;;8.68;4.10;;;;;;;;;;6299327;28;20048;-80
2023/07/17 15:37:36;;;;;;;8.52;4.10;;;;;;;;;;6299048;28;20050;-80
2023/07/17 15:40:39;;;;;;;7.85;4.30;;;;;;;;;;6295419;28;20294;-80
2023/07/17 15:43:40;;;;;;;6.50;3.88;;;;;;;;;;6298905;28;20060;-80
2023/07/17 15:46:42;;;;;;;7.55;4.15;;;;;;;;;;6299836;28;20108;-80
2023/07/17 15:49:43;;;;;;;7.87;4.13;;;;;;;;;;6301635;28;20102;-81
2023/07/17 15:52:45;;;;;;;11.63;4.95;;;;;;;;;;6298775;28;20052;-81
2023/07/17 15:55:48;;;;;;;9.68;4.30;;;;;;;;;;6296530;28;20076;-80
2023/07/17 15:58:49;;;;;;;9.20;4.18;;;;;;;;;;6296313;28;20055;-80
2023/07/17 16:01:51;;;;;;;10.40;4.07;;;;;;;;;;6299818;28;20095;-80
2023/07/17 16:04:53;;;;;;;7.07;4.05;;;;;;;;;;6299041;28;20340;-81
2023/07/17 16:07:54;;;;;;;8.38;4.38;;;;;;;;;;6299296;28;20311;-80
2023/07/17 16:10:57;;;;;;;8.17;4.17;;;;;;;;;;6299530;28;20059;-79
2023/07/17 16:13:58;;;;;;;9.60;4.55;;;;;;;;;;6299935;28;20057;-80
2023/07/17 16:17:00;;;;;;;7.13;3.53;;;;;;;;;;6298853;28;20137;-80
2023/07/17 16:20:02;;;;;;;10.00;4.15;;;;;;;;;;6299662;28;20057;-80
2023/07/17 16:23:03;;;;;;;7.82;4.03;;;;;;;;;;6303444;28;20339;-80
2023/07/17 16:26:07;;;;;;;7.88;4.38;;;;;;;;;;6305113;28;20082;-80
2023/07/17 16:29:09;;;;;;;7.18;3.65;;;;;;;;;;6303553;28;20671;-80
2023/07/17 16:32:11;;;;;;;8.88;3.97;;;;;;;;;;6304013;28;20056;-80
2023/07/17 16:35:12;;;;;;;9.30;4.13;;;;;;;;;;6304716;28;20044;-80
2023/07/17 16:38:13;;;;;;;11.63;4.18;;;;;;;;;;6304334;28;20044;-81
2023/07/17 16:41:16;;;;;;;11.63;4.17;;;;;;;;;;6302351;28;20070;-80
2023/07/17 16:44:18;;;;;;;9.40;4.40;;;;;;;;;;6303155;28;20064;-80
2023/07/17 16:47:19;;;;;;;8.60;4.33;;;;;;;;;;6304641;28;20320;-80
2023/07/17 16:50:21;;;;;;;8.60;4.13;;;;;;;;;;6304565;28;20259;-80
2023/07/17 16:53:22;;;;;;;8.88;4.68;;;;;;;;;;6303369;28;20040;-80
2023/07/17 16:56:25;;;;;;;8.63;3.90;;;;;;;;;;6304121;28;20056;-79
2023/07/17 16:59:27;;;;;;;9.25;4.38;;;;;;;;;;6302247;28;20071;-79
2023/07/17 17:02:29;;;;;;;9.90;4.25;;;;;;;;;;6301973;28;20044;-79
2023/07/17 17:05:30;;;;;;;6.67;4.17;;;;;;;;;;6303775;28;20051;-80
2023/07/17 17:08:32;;;;;;;9.33;4.70;;;;;;;;;;6303456;28;20255;-79
2023/07/17 17:11:34;;;;;;;5.78;4.32;;;;;;;;;;6302778;28;20980;-80
2023/07/17 17:14:36;;;;;;;9.40;4.35;;;;;;;;;;6302617;28;20044;-79
2023/07/17 17:17:37;;;;;;;8.35;4.32;;;;;;;;;;6302238;28;20056;-79
2023/07/17 17:20:39;;;;;;;8.10;3.97;;;;;;;;;;6302489;28;20345;-79
2023/07/17 17:23:40;;;;;;;9.63;4.20;;;;;;;;;;6303729;28;20063;-79
2023/07/17 17:26:43;;;;;;;12.27;4.80;;;;;;;;;;6303422;28;20464;-79
2023/07/17 17:29:44;;;;;;;10.48;4.50;;;;;;;;;;6302706;28;20249;-78
2023/07/17 17:32:46;;;;;;;8.85;4.22;;;;;;;;;;6301432;28;20245;-79
2023/07/17 17:35:47;;;;;;;9.38;4.55;;;;;;;;;;6304132;28;20348;-79
2023/07/17 17:38:49;;;;;;;11.25;4.80;;;;;;;;;;6301132;28;20068;-79
2023/07/17 17:41:52;;;;;;;9.70;4.50;;;;;;;;;;6302273;28;20267;-79
2023/07/17 17:44:53;;;;;;;10.82;4.43;;;;;;;;;;6301419;28;20056;-80
2023/07/17 17:47:54;;;;;;;7.78;4.45;;;;;;;;;;6301614;28;20351;-79
2023/07/17 17:50:56;;;;;;;10.60;4.28;;;;;;;;;;6300870;28;20056;-79
2023/07/17 17:53:57;;;;;;;5.93;4.20;;;;;;;;;;6301186;28;20106;-78
2023/07/17 17:57:00;;;;;;;8.88;4.82;;;;;;;;;;6302975;28;20135;-80
2023/07/17 18:00:05;;;;;;;8.90;4.10;;;;;;;;;;6298891;28;20044;-79
2023/07/17 18:03:06;;;;;;;8.35;4.53;;;;;;;;;;6301302;28;20051;-79
2023/07/17 18:06:08;;;;;;;8.05;4.55;;;;;;;;;;6298009;28;20247;-79
2023/07/17 18:09:09;;;;;;;7.57;4.07;;;;;;;;;;6301827;28;20116;-79